sensor_id;sensor_type;location;lat;lon;timestamp;temperature;humidity
7196;DHT22;3639;51.308;5.624;2023-03-01T00:00:54;-0.60;99.90
7196;DHT22;3639;51.308;5.624;2023-03-01T00:03:20;-0.70;99.90
7196;DHT22;3639;51.308;5.624;2023-03-01T00:05:46;-0.70;99.90
7196;DHT22;3639;51.308;5.624;2023-03-01T00:08:12;-0.70;99.90
7196;DHT22;3639;51.308;5.624;2023-03-01T00:10:38;-0.80;99.90
7196;DHT22;3639;51.308;5.624;2023-03-01T00:13:04;-0.80;99.90
7196;DHT22;3639;51.308;5.624;2023-03-01T00:15:31;-0.80;99.90
7196;DHT22;3639;51.308;5.624;2023-03-01T00:17:57;-0.80;99.90
7196;DHT22;3639;51.308;5.624;2023-03-01T00:20:23;-0.90;99.90
7196;DHT22;3639;51.308;5.624;2023-03-01T00:22:49;-0.90;99.90
7196;DHT22;3639;51.308;5.624;2023-03-01T00:25:15;-0.90;99.90
7196;DHT22;3639;51.308;5.624;2023-03-01T00:27:40;-1.00;99.90
7196;DHT22;3639;51.308;5.624;2023-03-01T00:30:06;-1.00;99.90
7196;DHT22;3639;51.308;5.624;2023-03-01T00:32:32;-1.00;99.90
7196;DHT22;3639;51.308;5.624;2023-03-01T00:34:58;-1.00;99.90
7196;DHT22;3639;51.308;5.624;2023-03-01T00:37:24;-1.10;99.90
7196;DHT22;3639;51.308;5.624;2023-03-01T00:39:50;-1.10;99.90
7196;DHT22;3639;51.308;5.624;2023-03-01T00:42:16;-1.10;99.90
7196;DHT22;3639;51.308;5.624;2023-03-01T00:44:42;-1.10;99.90
7196;DHT22;3639;51.308;5.624;2023-03-01T00:47:08;-1.20;99.90
7196;DHT22;3639;51.308;5.624;2023-03-01T00:49:34;-1.20;99.90
7196;DHT22;3639;51.308;5.624;2023-03-01T00:51:59;-1.20;99.90
7196;DHT22;3639;51.308;5.624;2023-03-01T00:54:25;-1.20;99.90
7196;DHT22;3639;51.308;5.624;2023-03-01T00:56:51;-1.20;99.90
7196;DHT22;3639;51.308;5.624;2023-03-01T00:59:16;-1.20;99.90
7196;DHT22;3639;51.308;5.624;2023-03-01T01:01:42;-1.20;99.90
7196;DHT22;3639;51.308;5.624;2023-03-01T01:04:11;-1.30;99.90
7196;DHT22;3639;51.308;5.624;2023-03-01T01:06:43;-1.30;99.90
7196;DHT22;3639;51.308;5.624;2023-03-01T01:09:12;-1.30;99.90
7196;DHT22;3639;51.308;5.624;2023-03-01T01:11:45;-1.30;99.90
7196;DHT22;3639;51.308;5.624;2023-03-01T01:14:12;-1.40;99.90
7196;DHT22;3639;51.308;5.624;2023-03-01T01:16:37;-1.40;99.90
7196;DHT22;3639;51.308;5.624;2023-03-01T01:19:03;-1.40;99.90
7196;DHT22;3639;51.308;5.624;2023-03-01T01:21:29;-1.50;99.90
7196;DHT22;3639;51.308;5.624;2023-03-01T01:23:55;-1.50;99.90
7196;DHT22;3639;51.308;5.624;2023-03-01T01:26:24;-1.50;99.90
7196;DHT22;3639;51.308;5.624;2023-03-01T01:28:51;-1.50;99.90
7196;DHT22;3639;51.308;5.624;2023-03-01T01:31:17;-1.60;99.90
7196;DHT22;3639;51.308;5.624;2023-03-01T01:33:43;-1.60;99.90
7196;DHT22;3639;51.308;5.624;2023-03-01T01:36:09;-1.60;99.90
7196;DHT22;3639;51.308;5.624;2023-03-01T01:38:36;-1.60;99.90
7196;DHT22;3639;51.308;5.624;2023-03-01T01:41:02;-1.60;99.90
7196;DHT22;3639;51.308;5.624;2023-03-01T01:43:31;-1.70;99.90
7196;DHT22;3639;51.308;5.624;2023-03-01T01:46:20;-1.70;99.90
7196;DHT22;3639;51.308;5.624;2023-03-01T01:48:50;-1.70;99.90
7196;DHT22;3639;51.308;5.624;2023-03-01T01:51:25;-1.80;99.90
7196;DHT22;3639;51.308;5.624;2023-03-01T01:53:56;-1.80;99.90
7196;DHT22;3639;51.308;5.624;2023-03-01T01:56:24;-1.80;99.90
7196;DHT22;3639;51.308;5.624;2023-03-01T01:58:52;-1.80;99.90
7196;DHT22;3639;51.308;5.624;2023-03-01T02:01:18;-1.90;99.90
7196;DHT22;3639;51.308;5.624;2023-03-01T02:03:46;-1.90;99.90
7196;DHT22;3639;51.308;5.624;2023-03-01T02:06:19;-1.90;99.90
7196;DHT22;3639;51.308;5.624;2023-03-01T02:08:49;-1.90;99.90
7196;DHT22;3639;51.308;5.624;2023-03-01T02:11:17;-1.90;99.90
7196;DHT22;3639;51.308;5.624;2023-03-01T02:13:44;-1.90;99.90
7196;DHT22;3639;51.308;5.624;2023-03-01T02:16:13;-2.00;99.90
7196;DHT22;3639;51.308;5.624;2023-03-01T02:18:40;-2.00;99.90
7196;DHT22;3639;51.308;5.624;2023-03-01T02:21:18;-2.00;99.90
7196;DHT22;3639;51.308;5.624;2023-03-01T02:23:47;-2.00;99.90
7196;DHT22;3639;51.308;5.624;2023-03-01T02:26:42;-2.00;99.90
7196;DHT22;3639;51.308;5.624;2023-03-01T02:29:10;-2.00;99.90
7196;DHT22;3639;51.308;5.624;2023-03-01T02:31:36;-2.10;99.90
7196;DHT22;3639;51.308;5.624;2023-03-01T02:34:20;-2.10;99.90
7196;DHT22;3639;51.308;5.624;2023-03-01T02:37:08;-2.10;99.90
7196;DHT22;3639;51.308;5.624;2023-03-01T02:39:47;-2.20;99.90
7196;DHT22;3639;51.308;5.624;2023-03-01T02:42:17;-2.30;99.90
7196;DHT22;3639;51.308;5.624;2023-03-01T02:44:45;-2.30;99.90
7196;DHT22;3639;51.308;5.624;2023-03-01T02:47:11;-2.40;99.90
7196;DHT22;3639;51.308;5.624;2023-03-01T02:49:37;-2.40;99.90
7196;DHT22;3639;51.308;5.624;2023-03-01T02:52:30;-2.40;99.90
7196;DHT22;3639;51.308;5.624;2023-03-01T02:57:29;-2.30;99.90
7196;DHT22;3639;51.308;5.624;2023-03-01T02:59:58;-2.30;99.90
7196;DHT22;3639;51.308;5.624;2023-03-01T03:02:28;-2.30;99.90
7196;DHT22;3639;51.308;5.624;2023-03-01T03:05:16;-2.30;99.90
7196;DHT22;3639;51.308;5.624;2023-03-01T03:07:46;-2.30;99.90
7196;DHT22;3639;51.308;5.624;2023-03-01T03:10:17;-2.30;99.90
7196;DHT22;3639;51.308;5.624;2023-03-01T03:12:55;-2.30;99.90
7196;DHT22;3639;51.308;5.624;2023-03-01T03:15:25;-2.30;99.90
7196;DHT22;3639;51.308;5.624;2023-03-01T03:17:53;-2.30;99.90
7196;DHT22;3639;51.308;5.624;2023-03-01T03:20:21;-2.30;99.90
7196;DHT22;3639;51.308;5.624;2023-03-01T03:22:51;-2.30;99.90
7196;DHT22;3639;51.308;5.624;2023-03-01T03:25:18;-2.30;99.90
7196;DHT22;3639;51.308;5.624;2023-03-01T03:27:47;-2.30;99.90
7196;DHT22;3639;51.308;5.624;2023-03-01T03:30:18;-2.30;99.90
7196;DHT22;3639;51.308;5.624;2023-03-01T03:32:45;-2.30;99.90
7196;DHT22;3639;51.308;5.624;2023-03-01T03:37:51;-2.30;99.90
7196;DHT22;3639;51.308;5.624;2023-03-01T03:40:35;-2.30;99.90
7196;DHT22;3639;51.308;5.624;2023-03-01T03:43:04;-2.40;99.90
7196;DHT22;3639;51.308;5.624;2023-03-01T03:45:30;-2.40;99.90
7196;DHT22;3639;51.308;5.624;2023-03-01T03:47:59;-2.40;99.90
7196;DHT22;3639;51.308;5.624;2023-03-01T03:50:25;-2.40;99.90
7196;DHT22;3639;51.308;5.624;2023-03-01T03:52:51;-2.40;99.90
7196;DHT22;3639;51.308;5.624;2023-03-01T03:55:17;-2.40;99.90
7196;DHT22;3639;51.308;5.624;2023-03-01T03:57:46;-2.40;99.90
7196;DHT22;3639;51.308;5.624;2023-03-01T04:00:18;-2.40;99.90
7196;DHT22;3639;51.308;5.624;2023-03-01T04:02:46;-2.40;99.90
7196;DHT22;3639;51.308;5.624;2023-03-01T04:05:13;-2.40;99.90
7196;DHT22;3639;51.308;5.624;2023-03-01T04:07:43;-2.40;99.90
7196;DHT22;3639;51.308;5.624;2023-03-01T04:10:16;-2.40;99.90
7196;DHT22;3639;51.308;5.624;2023-03-01T04:12:42;-2.40;99.90
7196;DHT22;3639;51.308;5.624;2023-03-01T04:15:09;-2.40;99.90
7196;DHT22;3639;51.308;5.624;2023-03-01T04:17:59;-2.30;99.90
7196;DHT22;3639;51.308;5.624;2023-03-01T04:20:31;-2.40;99.90
7196;DHT22;3639;51.308;5.624;2023-03-01T04:23:20;-2.30;99.90
7196;DHT22;3639;51.308;5.624;2023-03-01T04:25:54;-2.40;99.90
7196;DHT22;3639;51.308;5.624;2023-03-01T04:28:32;-2.40;99.90
7196;DHT22;3639;51.308;5.624;2023-03-01T04:31:03;-2.40;99.90
7196;DHT22;3639;51.308;5.624;2023-03-01T04:33:42;-2.40;99.90
7196;DHT22;3639;51.308;5.624;2023-03-01T04:36:08;-2.30;99.90
7196;DHT22;3639;51.308;5.624;2023-03-01T04:38:35;-2.40;99.90
7196;DHT22;3639;51.308;5.624;2023-03-01T04:41:06;-2.40;99.90
7196;DHT22;3639;51.308;5.624;2023-03-01T04:43:32;-2.40;99.90
7196;DHT22;3639;51.308;5.624;2023-03-01T04:46:08;-2.40;99.90
7196;DHT22;3639;51.308;5.624;2023-03-01T04:48:35;-2.40;99.90
7196;DHT22;3639;51.308;5.624;2023-03-01T04:51:02;-2.40;99.90
7196;DHT22;3639;51.308;5.624;2023-03-01T04:53:28;-2.40;99.90
7196;DHT22;3639;51.308;5.624;2023-03-01T04:55:55;-2.40;99.90
7196;DHT22;3639;51.308;5.624;2023-03-01T04:58:25;-2.40;99.90
7196;DHT22;3639;51.308;5.624;2023-03-01T05:00:51;-2.40;99.90
7196;DHT22;3639;51.308;5.624;2023-03-01T05:03:17;-2.40;99.90
7196;DHT22;3639;51.308;5.624;2023-03-01T05:05:44;-2.40;99.90
7196;DHT22;3639;51.308;5.624;2023-03-01T05:08:10;-2.30;99.90
7196;DHT22;3639;51.308;5.624;2023-03-01T05:10:44;-2.30;99.90
7196;DHT22;3639;51.308;5.624;2023-03-01T05:13:11;-2.40;99.90
7196;DHT22;3639;51.308;5.624;2023-03-01T05:15:39;-2.40;99.90
7196;DHT22;3639;51.308;5.624;2023-03-01T05:18:05;-2.40;99.90
7196;DHT22;3639;51.308;5.624;2023-03-01T05:20:37;-2.40;99.90
7196;DHT22;3639;51.308;5.624;2023-03-01T05:23:03;-2.50;99.90
7196;DHT22;3639;51.308;5.624;2023-03-01T05:25:31;-2.50;99.90
7196;DHT22;3639;51.308;5.624;2023-03-01T05:27:59;-2.50;99.90
7196;DHT22;3639;51.308;5.624;2023-03-01T05:30:28;-2.50;99.90
7196;DHT22;3639;51.308;5.624;2023-03-01T05:32:54;-2.50;99.90
7196;DHT22;3639;51.308;5.624;2023-03-01T05:35:21;-2.60;99.90
7196;DHT22;3639;51.308;5.624;2023-03-01T05:37:48;-2.60;99.90
7196;DHT22;3639;51.308;5.624;2023-03-01T05:40:19;-2.60;99.90
7196;DHT22;3639;51.308;5.624;2023-03-01T05:42:51;-2.60;99.90
7196;DHT22;3639;51.308;5.624;2023-03-01T05:45:18;-2.60;99.90
7196;DHT22;3639;51.308;5.624;2023-03-01T05:47:45;-2.70;99.90
7196;DHT22;3639;51.308;5.624;2023-03-01T05:50:23;-2.70;99.90
7196;DHT22;3639;51.308;5.624;2023-03-01T05:53:00;-2.70;99.90
7196;DHT22;3639;51.308;5.624;2023-03-01T05:55:26;-2.70;99.90
7196;DHT22;3639;51.308;5.624;2023-03-01T05:57:52;-2.70;99.90
7196;DHT22;3639;51.308;5.624;2023-03-01T06:00:20;-2.70;99.90
7196;DHT22;3639;51.308;5.624;2023-03-01T06:02:48;-2.80;99.90
7196;DHT22;3639;51.308;5.624;2023-03-01T06:05:14;-2.80;99.90
7196;DHT22;3639;51.308;5.624;2023-03-01T06:07:40;-2.70;99.90
7196;DHT22;3639;51.308;5.624;2023-03-01T06:10:07;-2.80;99.90
7196;DHT22;3639;51.308;5.624;2023-03-01T06:12:35;-2.80;99.90
7196;DHT22;3639;51.308;5.624;2023-03-01T06:15:01;-2.80;99.90
7196;DHT22;3639;51.308;5.624;2023-03-01T06:17:32;-2.80;99.90
7196;DHT22;3639;51.308;5.624;2023-03-01T06:19:58;-2.80;99.90
7196;DHT22;3639;51.308;5.624;2023-03-01T06:22:24;-2.80;99.90
7196;DHT22;3639;51.308;5.624;2023-03-01T06:24:49;-2.80;99.90
7196;DHT22;3639;51.308;5.624;2023-03-01T06:27:16;-2.80;99.90
7196;DHT22;3639;51.308;5.624;2023-03-01T06:29:41;-2.80;99.90
7196;DHT22;3639;51.308;5.624;2023-03-01T06:32:07;-2.70;99.90
7196;DHT22;3639;51.308;5.624;2023-03-01T06:34:33;-2.70;99.90
7196;DHT22;3639;51.308;5.624;2023-03-01T06:36:59;-2.70;99.90
7196;DHT22;3639;51.308;5.624;2023-03-01T06:39:25;-2.70;99.90
7196;DHT22;3639;51.308;5.624;2023-03-01T06:41:52;-2.70;99.90
7196;DHT22;3639;51.308;5.624;2023-03-01T06:44:18;-2.60;99.90
7196;DHT22;3639;51.308;5.624;2023-03-01T06:46:44;-2.60;99.90
7196;DHT22;3639;51.308;5.624;2023-03-01T06:49:09;-2.60;99.90
7196;DHT22;3639;51.308;5.624;2023-03-01T06:51:38;-2.60;99.90
7196;DHT22;3639;51.308;5.624;2023-03-01T06:54:04;-2.60;99.90
7196;DHT22;3639;51.308;5.624;2023-03-01T06:56:31;-2.60;99.90
7196;DHT22;3639;51.308;5.624;2023-03-01T06:58:57;-2.50;99.90
7196;DHT22;3639;51.308;5.624;2023-03-01T07:01:22;-2.50;99.90
7196;DHT22;3639;51.308;5.624;2023-03-01T07:03:48;-2.50;99.90
7196;DHT22;3639;51.308;5.624;2023-03-01T07:06:14;-2.50;99.90
7196;DHT22;3639;51.308;5.624;2023-03-01T07:08:39;-2.40;99.90
7196;DHT22;3639;51.308;5.624;2023-03-01T07:11:05;-2.40;99.90
7196;DHT22;3639;51.308;5.624;2023-03-01T07:13:31;-2.40;99.90
7196;DHT22;3639;51.308;5.624;2023-03-01T07:15:57;-2.40;99.90
7196;DHT22;3639;51.308;5.624;2023-03-01T07:18:23;-2.40;99.90
7196;DHT22;3639;51.308;5.624;2023-03-01T07:20:48;-2.40;99.90
7196;DHT22;3639;51.308;5.624;2023-03-01T07:23:14;-2.30;99.90
7196;DHT22;3639;51.308;5.624;2023-03-01T07:25:40;-2.30;99.90
7196;DHT22;3639;51.308;5.624;2023-03-01T07:28:06;-2.20;99.90
7196;DHT22;3639;51.308;5.624;2023-03-01T07:30:32;-2.10;99.90
7196;DHT22;3639;51.308;5.624;2023-03-01T07:32:58;-2.00;99.90
7196;DHT22;3639;51.308;5.624;2023-03-01T07:35:25;-1.90;99.90
7196;DHT22;3639;51.308;5.624;2023-03-01T07:37:52;-1.80;99.90
7196;DHT22;3639;51.308;5.624;2023-03-01T07:40:18;-1.80;99.90
7196;DHT22;3639;51.308;5.624;2023-03-01T07:42:44;-1.70;99.90
7196;DHT22;3639;51.308;5.624;2023-03-01T07:45:10;-1.60;99.90
7196;DHT22;3639;51.308;5.624;2023-03-01T07:47:36;-1.50;99.90
7196;DHT22;3639;51.308;5.624;2023-03-01T07:50:03;-1.40;99.90
7196;DHT22;3639;51.308;5.624;2023-03-01T07:52:29;-1.40;99.90
7196;DHT22;3639;51.308;5.624;2023-03-01T07:54:56;-1.30;99.90
7196;DHT22;3639;51.308;5.624;2023-03-01T07:57:22;-1.20;99.90
7196;DHT22;3639;51.308;5.624;2023-03-01T07:59:48;-1.10;99.90
7196;DHT22;3639;51.308;5.624;2023-03-01T08:02:17;-1.10;99.90
7196;DHT22;3639;51.308;5.624;2023-03-01T08:04:42;-1.00;99.90
7196;DHT22;3639;51.308;5.624;2023-03-01T08:07:08;-0.90;99.90
7196;DHT22;3639;51.308;5.624;2023-03-01T08:09:37;-0.80;99.90
7196;DHT22;3639;51.308;5.624;2023-03-01T08:12:03;-0.70;99.90
7196;DHT22;3639;51.308;5.624;2023-03-01T08:14:30;-0.60;99.90
7196;DHT22;3639;51.308;5.624;2023-03-01T08:16:56;-0.50;99.90
7196;DHT22;3639;51.308;5.624;2023-03-01T08:19:22;-0.40;99.90
7196;DHT22;3639;51.308;5.624;2023-03-01T08:21:47;-0.30;99.90
7196;DHT22;3639;51.308;5.624;2023-03-01T08:24:13;-0.20;99.90
7196;DHT22;3639;51.308;5.624;2023-03-01T08:26:39;-0.10;99.90
7196;DHT22;3639;51.308;5.624;2023-03-01T08:29:04;-0.10;99.90
7196;DHT22;3639;51.308;5.624;2023-03-01T08:31:35;0.10;99.90
7196;DHT22;3639;51.308;5.624;2023-03-01T08:34:09;0.20;99.90
7196;DHT22;3639;51.308;5.624;2023-03-01T08:36:37;0.20;99.90
7196;DHT22;3639;51.308;5.624;2023-03-01T08:39:04;0.40;99.90
7196;DHT22;3639;51.308;5.624;2023-03-01T08:41:29;0.50;99.90
7196;DHT22;3639;51.308;5.624;2023-03-01T08:43:55;0.50;99.90
7196;DHT22;3639;51.308;5.624;2023-03-01T08:46:28;0.60;99.90
7196;DHT22;3639;51.308;5.624;2023-03-01T08:48:54;0.70;99.90
7196;DHT22;3639;51.308;5.624;2023-03-01T08:51:21;0.80;99.90
7196;DHT22;3639;51.308;5.624;2023-03-01T08:53:47;0.90;99.90
7196;DHT22;3639;51.308;5.624;2023-03-01T08:56:13;0.90;99.90
7196;DHT22;3639;51.308;5.624;2023-03-01T08:58:39;1.00;99.90
7196;DHT22;3639;51.308;5.624;2023-03-01T09:01:13;1.10;99.90
7196;DHT22;3639;51.308;5.624;2023-03-01T09:03:40;1.20;99.90
7196;DHT22;3639;51.308;5.624;2023-03-01T09:06:06;1.30;99.90
7196;DHT22;3639;51.308;5.624;2023-03-01T09:08:37;1.40;99.90
7196;DHT22;3639;51.308;5.624;2023-03-01T09:11:04;1.60;99.90
7196;DHT22;3639;51.308;5.624;2023-03-01T09:13:31;1.70;99.90
7196;DHT22;3639;51.308;5.624;2023-03-01T09:15:57;1.70;99.90
7196;DHT22;3639;51.308;5.624;2023-03-01T09:18:23;1.80;99.90
7196;DHT22;3639;51.308;5.624;2023-03-01T09:20:49;1.80;99.90
7196;DHT22;3639;51.308;5.624;2023-03-01T09:23:15;1.90;99.90
7196;DHT22;3639;51.308;5.624;2023-03-01T09:25:40;1.90;99.90
7196;DHT22;3639;51.308;5.624;2023-03-01T09:28:06;2.00;99.90
7196;DHT22;3639;51.308;5.624;2023-03-01T09:30:32;2.00;99.90
7196;DHT22;3639;51.308;5.624;2023-03-01T09:32:57;2.10;99.90
7196;DHT22;3639;51.308;5.624;2023-03-01T09:35:23;2.10;99.90
7196;DHT22;3639;51.308;5.624;2023-03-01T09:37:49;2.30;99.90
7196;DHT22;3639;51.308;5.624;2023-03-01T09:40:24;2.30;99.90
7196;DHT22;3639;51.308;5.624;2023-03-01T09:43:06;2.40;99.90
7196;DHT22;3639;51.308;5.624;2023-03-01T09:45:40;2.50;99.90
7196;DHT22;3639;51.308;5.624;2023-03-01T09:48:15;2.60;99.90
7196;DHT22;3639;51.308;5.624;2023-03-01T09:50:43;2.70;99.90
7196;DHT22;3639;51.308;5.624;2023-03-01T09:53:23;2.80;99.90
7196;DHT22;3639;51.308;5.624;2023-03-01T09:56:16;2.80;99.90
7196;DHT22;3639;51.308;5.624;2023-03-01T10:05:04;3.10;99.90
7196;DHT22;3639;51.308;5.624;2023-03-01T10:07:47;3.20;99.90
7196;DHT22;3639;51.308;5.624;2023-03-01T10:10:36;3.20;99.90
7196;DHT22;3639;51.308;5.624;2023-03-01T10:13:25;3.20;99.90
7196;DHT22;3639;51.308;5.624;2023-03-01T10:16:12;3.30;99.90
7196;DHT22;3639;51.308;5.624;2023-03-01T10:18:40;3.30;99.90
7196;DHT22;3639;51.308;5.624;2023-03-01T10:21:15;3.40;99.70
7196;DHT22;3639;51.308;5.624;2023-03-01T10:23:43;3.40;99.50
7196;DHT22;3639;51.308;5.624;2023-03-01T10:29:04;3.60;99.10
7196;DHT22;3639;51.308;5.624;2023-03-01T10:31:51;3.70;98.50
7196;DHT22;3639;51.308;5.624;2023-03-01T10:34:32;3.80;98.00
7196;DHT22;3639;51.308;5.624;2023-03-01T10:37:11;3.90;97.70
7196;DHT22;3639;51.308;5.624;2023-03-01T10:39:37;4.00;98.20
7196;DHT22;3639;51.308;5.624;2023-03-01T10:42:04;4.10;97.50
7196;DHT22;3639;51.308;5.624;2023-03-01T10:44:45;4.10;97.30
7196;DHT22;3639;51.308;5.624;2023-03-01T10:47:26;4.10;97.00
7196;DHT22;3639;51.308;5.624;2023-03-01T10:52:24;4.10;97.00
7196;DHT22;3639;51.308;5.624;2023-03-01T10:54:56;4.20;97.00
7196;DHT22;3639;51.308;5.624;2023-03-01T10:57:34;4.30;96.90
7196;DHT22;3639;51.308;5.624;2023-03-01T11:00:16;4.50;96.40
7196;DHT22;3639;51.308;5.624;2023-03-01T11:05:25;4.80;96.00
7196;DHT22;3639;51.308;5.624;2023-03-01T11:07:58;4.70;95.20
7196;DHT22;3639;51.308;5.624;2023-03-01T11:10:27;4.60;95.20
7196;DHT22;3639;51.308;5.624;2023-03-01T11:12:53;4.60;95.30
7196;DHT22;3639;51.308;5.624;2023-03-01T11:15:27;4.70;95.50
7196;DHT22;3639;51.308;5.624;2023-03-01T11:17:54;4.70;95.20
7196;DHT22;3639;51.308;5.624;2023-03-01T11:20:37;4.80;95.30
7196;DHT22;3639;51.308;5.624;2023-03-01T11:23:13;4.90;95.10
7196;DHT22;3639;51.308;5.624;2023-03-01T11:25:46;5.00;94.40
7196;DHT22;3639;51.308;5.624;2023-03-01T11:28:17;5.00;94.30
7196;DHT22;3639;51.308;5.624;2023-03-01T11:35:57;5.00;94.50
7196;DHT22;3639;51.308;5.624;2023-03-01T11:38:27;5.10;94.40
7196;DHT22;3639;51.308;5.624;2023-03-01T11:41:00;5.00;94.50
7196;DHT22;3639;51.308;5.624;2023-03-01T11:43:37;5.10;94.40
7196;DHT22;3639;51.308;5.624;2023-03-01T12:13:45;5.30;93.30
7196;DHT22;3639;51.308;5.624;2023-03-01T12:16:29;5.50;93.70
7196;DHT22;3639;51.308;5.624;2023-03-01T12:33:36;5.70;92.70
7196;DHT22;3639;51.308;5.624;2023-03-01T12:49:57;5.60;92.10
7196;DHT22;3639;51.308;5.624;2023-03-01T12:52:38;5.70;92.80
7196;DHT22;3639;51.308;5.624;2023-03-01T12:55:18;5.80;93.00
7196;DHT22;3639;51.308;5.624;2023-03-01T13:11:21;5.80;93.00
7196;DHT22;3639;51.308;5.624;2023-03-01T13:13:48;5.80;92.90
7196;DHT22;3639;51.308;5.624;2023-03-01T13:19:16;5.80;93.10
7196;DHT22;3639;51.308;5.624;2023-03-01T13:21:44;5.80;92.50
7196;DHT22;3639;51.308;5.624;2023-03-01T13:24:33;5.80;92.40
7196;DHT22;3639;51.308;5.624;2023-03-01T13:29:51;5.90;92.10
7196;DHT22;3639;51.308;5.624;2023-03-01T13:32:25;5.90;92.00
7196;DHT22;3639;51.308;5.624;2023-03-01T13:37:44;6.00;91.30
7196;DHT22;3639;51.308;5.624;2023-03-01T13:42:48;6.00;91.00
7196;DHT22;3639;51.308;5.624;2023-03-01T13:45:21;6.00;90.70
7196;DHT22;3639;51.308;5.624;2023-03-01T13:47:52;6.10;91.60
7196;DHT22;3639;51.308;5.624;2023-03-01T13:50:24;6.20;90.90
7196;DHT22;3639;51.308;5.624;2023-03-01T13:52:54;6.30;91.40
7196;DHT22;3639;51.308;5.624;2023-03-01T13:55:42;6.30;91.00
7196;DHT22;3639;51.308;5.624;2023-03-01T13:58:33;6.30;91.10
7196;DHT22;3639;51.308;5.624;2023-03-01T14:01:03;6.30;91.00
7196;DHT22;3639;51.308;5.624;2023-03-01T14:03:31;6.30;91.70
7196;DHT22;3639;51.308;5.624;2023-03-01T14:08:30;6.30;91.30
7196;DHT22;3639;51.308;5.624;2023-03-01T14:14:05;6.40;91.10
7196;DHT22;3639;51.308;5.624;2023-03-01T14:17:00;6.40;91.10
7196;DHT22;3639;51.308;5.624;2023-03-01T14:19:30;6.30;90.70
7196;DHT22;3639;51.308;5.624;2023-03-01T14:24:51;6.40;90.90
7196;DHT22;3639;51.308;5.624;2023-03-01T14:27:18;6.40;91.10
7196;DHT22;3639;51.308;5.624;2023-03-01T14:29:58;6.30;91.30
7196;DHT22;3639;51.308;5.624;2023-03-01T14:32:31;6.30;90.80
7196;DHT22;3639;51.308;5.624;2023-03-01T14:34:59;6.30;90.30
7196;DHT22;3639;51.308;5.624;2023-03-01T14:37:31;6.40;90.90
7196;DHT22;3639;51.308;5.624;2023-03-01T14:39:58;6.40;91.00
7196;DHT22;3639;51.308;5.624;2023-03-01T14:42:30;6.40;90.70
7196;DHT22;3639;51.308;5.624;2023-03-01T14:44:57;6.50;91.20
7196;DHT22;3639;51.308;5.624;2023-03-01T14:47:29;6.40;90.90
7196;DHT22;3639;51.308;5.624;2023-03-01T14:52:48;6.50;91.10
7196;DHT22;3639;51.308;5.624;2023-03-01T14:55:20;6.50;91.20
7196;DHT22;3639;51.308;5.624;2023-03-01T14:57:50;6.40;90.00
7196;DHT22;3639;51.308;5.624;2023-03-01T15:00:20;6.40;90.70
7196;DHT22;3639;51.308;5.624;2023-03-01T15:02:48;6.40;90.80
7196;DHT22;3639;51.308;5.624;2023-03-01T15:05:18;6.40;90.10
7196;DHT22;3639;51.308;5.624;2023-03-01T15:07:45;6.40;90.30
7196;DHT22;3639;51.308;5.624;2023-03-01T15:10:28;6.40;90.80
7196;DHT22;3639;51.308;5.624;2023-03-01T15:12:54;6.50;91.10
7196;DHT22;3639;51.308;5.624;2023-03-01T15:15:32;6.50;90.90
7196;DHT22;3639;51.308;5.624;2023-03-01T15:18:02;6.50;90.60
7196;DHT22;3639;51.308;5.624;2023-03-01T15:20:29;6.50;90.50
7196;DHT22;3639;51.308;5.624;2023-03-01T15:22:57;6.60;90.50
7196;DHT22;3639;51.308;5.624;2023-03-01T15:25:27;6.50;90.40
7196;DHT22;3639;51.308;5.624;2023-03-01T15:27:54;6.50;90.80
7196;DHT22;3639;51.308;5.624;2023-03-01T15:30:23;6.50;90.20
7196;DHT22;3639;51.308;5.624;2023-03-01T15:33:16;6.50;90.10
7196;DHT22;3639;51.308;5.624;2023-03-01T15:35:46;6.50;90.20
7196;DHT22;3639;51.308;5.624;2023-03-01T15:38:36;6.50;90.00
7196;DHT22;3639;51.308;5.624;2023-03-01T15:41:26;6.50;90.10
7196;DHT22;3639;51.308;5.624;2023-03-01T15:43:52;6.50;90.10
7196;DHT22;3639;51.308;5.624;2023-03-01T15:46:25;6.50;90.20
7196;DHT22;3639;51.308;5.624;2023-03-01T15:49:00;6.60;90.20
7196;DHT22;3639;51.308;5.624;2023-03-01T15:51:36;6.50;90.30
7196;DHT22;3639;51.308;5.624;2023-03-01T15:54:11;6.50;90.10
7196;DHT22;3639;51.308;5.624;2023-03-01T15:56:39;6.50;90.40
7196;DHT22;3639;51.308;5.624;2023-03-01T15:59:04;6.40;90.10
7196;DHT22;3639;51.308;5.624;2023-03-01T16:01:32;6.30;90.10
7196;DHT22;3639;51.308;5.624;2023-03-01T16:04:00;6.30;90.30
7196;DHT22;3639;51.308;5.624;2023-03-01T16:06:25;6.20;90.30
7196;DHT22;3639;51.308;5.624;2023-03-01T16:08:51;6.20;90.30
7196;DHT22;3639;51.308;5.624;2023-03-01T16:11:18;6.20;90.00
7196;DHT22;3639;51.308;5.624;2023-03-01T16:13:45;6.20;90.50
7196;DHT22;3639;51.308;5.624;2023-03-01T16:16:12;6.10;90.60
7196;DHT22;3639;51.308;5.624;2023-03-01T16:18:41;6.10;90.40
7196;DHT22;3639;51.308;5.624;2023-03-01T16:21:08;6.10;90.80
7196;DHT22;3639;51.308;5.624;2023-03-01T16:23:34;6.10;90.90
7196;DHT22;3639;51.308;5.624;2023-03-01T16:26:00;6.10;90.90
7196;DHT22;3639;51.308;5.624;2023-03-01T16:28:26;6.00;91.30
7196;DHT22;3639;51.308;5.624;2023-03-01T16:30:52;6.00;91.30
7196;DHT22;3639;51.308;5.624;2023-03-01T16:33:17;5.90;91.70
7196;DHT22;3639;51.308;5.624;2023-03-01T16:35:43;5.90;91.70
7196;DHT22;3639;51.308;5.624;2023-03-01T16:38:09;5.80;91.50
7196;DHT22;3639;51.308;5.624;2023-03-01T16:40:35;5.70;91.70
7196;DHT22;3639;51.308;5.624;2023-03-01T16:43:01;5.70;91.80
7196;DHT22;3639;51.308;5.624;2023-03-01T16:45:32;5.70;91.90
7196;DHT22;3639;51.308;5.624;2023-03-01T16:47:58;5.60;92.10
7196;DHT22;3639;51.308;5.624;2023-03-01T16:50:24;5.60;92.30
7196;DHT22;3639;51.308;5.624;2023-03-01T16:52:50;5.50;92.30
7196;DHT22;3639;51.308;5.624;2023-03-01T16:55:16;5.40;92.40
7196;DHT22;3639;51.308;5.624;2023-03-01T16:57:42;5.40;92.50
7196;DHT22;3639;51.308;5.624;2023-03-01T17:00:10;5.30;92.40
7196;DHT22;3639;51.308;5.624;2023-03-01T17:02:38;5.30;92.40
7196;DHT22;3639;51.308;5.624;2023-03-01T17:05:05;5.20;92.60
7196;DHT22;3639;51.308;5.624;2023-03-01T17:07:33;5.20;92.60
7196;DHT22;3639;51.308;5.624;2023-03-01T17:10:04;5.10;92.60
7196;DHT22;3639;51.308;5.624;2023-03-01T17:12:30;5.00;92.70
7196;DHT22;3639;51.308;5.624;2023-03-01T17:14:57;4.90;92.80
7196;DHT22;3639;51.308;5.624;2023-03-01T17:17:23;4.90;92.80
7196;DHT22;3639;51.308;5.624;2023-03-01T17:19:48;4.80;92.90
7196;DHT22;3639;51.308;5.624;2023-03-01T17:22:14;4.70;93.00
7196;DHT22;3639;51.308;5.624;2023-03-01T17:24:42;4.70;93.00
7196;DHT22;3639;51.308;5.624;2023-03-01T17:27:08;4.60;93.00
7196;DHT22;3639;51.308;5.624;2023-03-01T17:29:34;4.50;93.00
7196;DHT22;3639;51.308;5.624;2023-03-01T17:32:00;4.50;93.00
7196;DHT22;3639;51.308;5.624;2023-03-01T17:34:26;4.50;93.10
7196;DHT22;3639;51.308;5.624;2023-03-01T17:36:52;4.40;93.10
7196;DHT22;3639;51.308;5.624;2023-03-01T17:39:19;4.40;92.90
7196;DHT22;3639;51.308;5.624;2023-03-01T17:41:50;4.30;92.90
7196;DHT22;3639;51.308;5.624;2023-03-01T17:44:16;4.30;93.20
7196;DHT22;3639;51.308;5.624;2023-03-01T17:46:42;4.20;93.20
7196;DHT22;3639;51.308;5.624;2023-03-01T17:49:07;4.10;93.10
7196;DHT22;3639;51.308;5.624;2023-03-01T17:51:33;4.10;93.20
7196;DHT22;3639;51.308;5.624;2023-03-01T17:53:59;4.10;93.30
7196;DHT22;3639;51.308;5.624;2023-03-01T17:56:24;4.00;93.30
7196;DHT22;3639;51.308;5.624;2023-03-01T17:58:51;4.00;93.50
7196;DHT22;3639;51.308;5.624;2023-03-01T18:01:19;3.90;93.50
7196;DHT22;3639;51.308;5.624;2023-03-01T18:03:45;3.90;93.70
7196;DHT22;3639;51.308;5.624;2023-03-01T18:06:19;3.80;93.70
7196;DHT22;3639;51.308;5.624;2023-03-01T18:08:46;3.70;93.70
7196;DHT22;3639;51.308;5.624;2023-03-01T18:11:12;3.60;93.90
7196;DHT22;3639;51.308;5.624;2023-03-01T18:13:39;3.60;94.00
7196;DHT22;3639;51.308;5.624;2023-03-01T18:16:11;3.50;94.10
7196;DHT22;3639;51.308;5.624;2023-03-01T18:18:37;3.40;94.20
7196;DHT22;3639;51.308;5.624;2023-03-01T18:21:04;3.40;94.20